createdAt,value
2022-10-03T00:00:11.182Z,10.30
2022-10-03T00:03:21.876Z,11.30
2022-10-03T00:06:02.430Z,10.70
2022-10-03T00:08:45.935Z,10.60
2022-10-03T00:11:46.225Z,10.80
2022-10-03T00:14:23.222Z,11.10
2022-10-03T00:17:13.448Z,8.90
2022-10-03T00:20:00.060Z,9.20
2022-10-03T00:22:57.000Z,8.50
2022-10-03T00:25:30.916Z,9.00
2022-10-03T00:28:49.679Z,7.50
2022-10-03T00:31:25.856Z,7.90
2022-10-03T00:34:12.051Z,8.40
2022-10-03T00:37:08.727Z,8.20
2022-10-03T00:40:14.931Z,7.70
2022-10-03T00:43:08.503Z,7.80
2022-10-03T00:45:45.552Z,7.60
2022-10-03T00:48:52.448Z,7.60
2022-10-03T00:51:57.587Z,8.20
2022-10-03T00:54:53.451Z,8.40
2022-10-03T00:57:39.560Z,8.40
2022-10-03T01:00:19.870Z,8.60
2022-10-03T01:03:15.763Z,8.20
2022-10-03T01:06:16.581Z,9.10
2022-10-03T01:09:05.614Z,10.10
2022-10-03T01:11:45.300Z,10.30
2022-10-03T01:14:47.049Z,11.20
2022-10-03T01:17:32.095Z,12.70
2022-10-03T01:20:24.950Z,11.70
2022-10-03T01:23:14.424Z,12.20
2022-10-03T01:26:00.161Z,12.40
2022-10-03T01:28:53.353Z,12.70
2022-10-03T01:31:30.301Z,10.80
2022-10-03T01:34:11.932Z,10.10
2022-10-03T01:36:54.816Z,10.90
2022-10-03T01:39:37.342Z,10.60
2022-10-03T01:42:11.221Z,10.00
2022-10-03T01:45:01.479Z,9.70
2022-10-03T01:47:39.755Z,10.00
2022-10-03T01:50:21.892Z,10.00
2022-10-03T01:53:16.307Z,8.80
2022-10-03T01:56:04.681Z,8.30
2022-10-03T01:58:46.071Z,8.50
2022-10-03T02:01:39.507Z,8.90
2022-10-03T02:04:18.383Z,8.60
2022-10-03T02:07:05.388Z,8.80
2022-10-03T02:09:47.194Z,8.10
2022-10-03T02:12:31.336Z,9.10
2022-10-03T02:15:43.632Z,8.40
2022-10-03T02:18:18.303Z,8.40
2022-10-03T02:20:51.224Z,8.80
2022-10-03T02:23:24.751Z,8.50
2022-10-03T02:26:20.630Z,9.10
2022-10-03T02:29:10.799Z,10.30
2022-10-03T02:31:41.954Z,8.90
2022-10-03T02:34:34.534Z,9.70
2022-10-03T02:37:22.753Z,9.20
2022-10-03T02:40:28.186Z,9.80
2022-10-03T02:43:17.410Z,10.20
2022-10-03T02:46:04.774Z,11.20
2022-10-03T02:48:38.703Z,8.80
2022-10-03T02:51:20.397Z,7.80
2022-10-03T02:53:56.670Z,7.90
2022-10-03T02:56:33.696Z,7.30
2022-10-03T02:59:24.320Z,7.00
2022-10-03T03:02:17.471Z,7.70
2022-10-03T03:05:09.767Z,7.30
2022-10-03T03:08:08.531Z,6.80
2022-10-03T03:11:03.900Z,6.70
2022-10-03T03:13:38.049Z,6.80
2022-10-03T03:16:44.448Z,6.50
2022-10-03T03:19:15.300Z,8.10
2022-10-03T03:22:05.627Z,7.60
2022-10-03T03:24:45.688Z,8.20
2022-10-03T03:27:47.952Z,8.90
2022-10-03T03:30:19.215Z,8.70
2022-10-03T03:33:11.246Z,8.10
2022-10-03T03:36:03.897Z,8.70
2022-10-03T03:38:54.603Z,8.30
2022-10-03T03:41:25.129Z,7.70
2022-10-03T03:44:22.286Z,7.10
2022-10-03T03:47:28.245Z,7.90
2022-10-03T03:50:11.540Z,7.70
2022-10-03T03:53:11.792Z,6.50
2022-10-03T03:56:08.407Z,6.10
2022-10-03T03:58:54.646Z,6.90
2022-10-03T04:01:49.331Z,7.50
2022-10-03T04:04:45.912Z,7.10
2022-10-03T04:07:24.360Z,7.30
2022-10-03T04:10:16.835Z,7.50
2022-10-03T04:13:10.175Z,7.60
2022-10-03T04:16:00.817Z,8.00
2022-10-03T04:18:59.226Z,9.60
2022-10-03T04:21:39.745Z,12.70
2022-10-03T04:24:38.888Z,11.80
2022-10-03T04:27:45.371Z,12.10
2022-10-03T04:30:15.934Z,12.00
2022-10-03T04:33:06.924Z,11.50
2022-10-03T04:36:06.331Z,12.00
2022-10-03T04:38:54.796Z,12.30
2022-10-03T04:41:50.213Z,11.80
2022-10-03T04:44:55.290Z,10.60
2022-10-03T04:47:42.861Z,11.40
2022-10-03T04:50:32.030Z,8.80
2022-10-03T04:53:21.812Z,9.50
2022-10-03T04:55:52.299Z,8.50
2022-10-03T04:58:51.013Z,8.40
2022-10-03T05:01:48.916Z,9.20
2022-10-03T05:04:32.501Z,8.40
2022-10-03T05:07:41.676Z,8.20
2022-10-03T05:10:36.033Z,7.10
2022-10-03T05:13:29.267Z,7.30
2022-10-03T05:16:23.858Z,7.20
2022-10-03T05:19:09.980Z,7.20
2022-10-03T05:21:49.108Z,7.80
2022-10-03T05:24:29.177Z,7.30
2022-10-03T05:27:13.965Z,6.80
2022-10-03T05:32:18.147Z,6.40
2022-10-03T05:35:21.037Z,6.20
2022-10-03T05:38:21.315Z,6.30
2022-10-03T05:41:03.676Z,6.40
2022-10-03T05:43:45.010Z,5.60
2022-10-03T05:46:14.702Z,5.90
2022-10-03T05:49:05.143Z,6.10
2022-10-03T05:51:55.073Z,5.40
2022-10-03T05:54:32.205Z,6.10
2022-10-03T05:57:15.209Z,5.80
2022-10-03T06:00:09.273Z,6.50
2022-10-03T06:02:53.356Z,6.30
2022-10-03T06:05:33.130Z,5.80
2022-10-03T06:08:21.196Z,6.80
2022-10-03T06:11:04.373Z,6.30
2022-10-03T06:13:43.587Z,6.50
2022-10-03T06:16:23.129Z,6.40
2022-10-03T06:19:15.317Z,5.80
2022-10-03T06:22:25.014Z,5.80
2022-10-03T06:24:55.957Z,5.70
2022-10-03T06:27:45.123Z,5.20
2022-10-03T06:30:40.974Z,5.30
2022-10-03T06:33:39.455Z,5.00
2022-10-03T06:36:25.360Z,5.30
2022-10-03T06:38:59.042Z,4.70
2022-10-03T06:42:04.708Z,5.20
2022-10-03T06:44:55.290Z,5.40
2022-10-03T06:47:39.206Z,5.60
2022-10-03T06:50:19.682Z,4.80
2022-10-03T06:52:58.655Z,4.60
2022-10-03T06:56:04.926Z,5.90
2022-10-03T06:59:12.531Z,5.70
2022-10-03T07:02:14.574Z,5.60
2022-10-03T07:05:02.791Z,4.90
2022-10-03T07:07:57.793Z,5.30
2022-10-03T07:10:35.792Z,4.40
2022-10-03T07:13:42.489Z,5.60
2022-10-03T07:16:30.770Z,5.60
2022-10-03T07:19:34.008Z,4.90
2022-10-03T07:22:49.210Z,6.50
2022-10-03T07:25:54.425Z,6.20
2022-10-03T07:28:42.256Z,8.20
2022-10-03T07:31:40.766Z,6.20
2022-10-03T07:34:40.377Z,6.00
2022-10-03T07:37:48.701Z,6.10
2022-10-03T07:40:57.020Z,6.90
2022-10-03T07:43:36.790Z,6.10
2022-10-03T07:46:29.960Z,6.70
2022-10-03T07:49:18.554Z,6.20
2022-10-03T07:52:31.499Z,6.10
2022-10-03T07:55:30.332Z,7.20
2022-10-03T07:58:24.463Z,6.50
2022-10-03T08:01:08.983Z,5.70
2022-10-03T08:03:45.852Z,5.30
2022-10-03T08:06:35.972Z,5.80
2022-10-03T08:09:55.410Z,5.80
2022-10-03T08:12:47.952Z,5.50
2022-10-03T08:15:41.521Z,5.50
2022-10-03T08:18:34.050Z,5.60
2022-10-03T08:21:05.551Z,5.00
2022-10-03T08:24:02.821Z,4.90
2022-10-03T08:26:48.719Z,5.40
2022-10-03T08:29:28.616Z,5.50
2022-10-03T08:32:30.150Z,5.40
2022-10-03T08:35:24.476Z,5.90
2022-10-03T08:38:04.649Z,6.70
2022-10-03T08:41:09.904Z,4.90
2022-10-03T08:43:46.894Z,4.40
2022-10-03T08:46:17.712Z,4.70
2022-10-03T08:49:14.759Z,5.10
2022-10-03T08:51:43.203Z,3.90
2022-10-03T08:54:55.002Z,4.00
2022-10-03T08:57:31.460Z,4.30
2022-10-03T09:00:19.395Z,4.70
2022-10-03T09:03:06.519Z,5.10
2022-10-03T09:05:44.121Z,4.30
2022-10-03T09:08:31.324Z,5.30
2022-10-03T09:11:19.100Z,5.10
2022-10-03T09:14:14.042Z,5.00
2022-10-03T09:16:55.258Z,6.20
2022-10-03T09:20:01.289Z,4.80
2022-10-03T09:22:49.560Z,5.30
2022-10-03T09:25:36.226Z,5.30
2022-10-03T09:28:42.841Z,5.30
2022-10-03T09:31:29.477Z,5.80
2022-10-03T09:34:13.975Z,6.10
2022-10-03T09:37:13.621Z,5.90
2022-10-03T09:39:56.573Z,6.20
2022-10-03T09:43:02.479Z,5.50
2022-10-03T09:45:51.587Z,5.50
2022-10-03T09:48:35.111Z,5.80
2022-10-03T09:51:24.281Z,5.20
2022-10-03T09:53:55.259Z,4.60
2022-10-03T09:56:26.273Z,4.60
2022-10-03T09:59:28.163Z,5.30
2022-10-03T10:02:10.002Z,5.10
2022-10-03T10:04:55.738Z,5.00
2022-10-03T10:07:55.438Z,5.20
2022-10-03T10:11:00.409Z,5.60
2022-10-03T10:14:07.229Z,4.20
2022-10-03T10:17:14.372Z,4.60
2022-10-03T10:20:07.589Z,4.20
2022-10-03T10:23:12.580Z,4.80
2022-10-03T10:26:01.943Z,4.60
2022-10-03T10:28:54.045Z,3.80
2022-10-03T10:31:55.969Z,4.70
2022-10-03T10:34:50.287Z,4.60
2022-10-03T10:37:46.422Z,4.00
2022-10-03T10:40:29.642Z,3.90
2022-10-03T10:42:57.773Z,4.60
2022-10-03T10:45:47.192Z,4.40
2022-10-03T10:48:21.525Z,4.10
2022-10-03T10:51:30.251Z,4.50
2022-10-03T10:54:26.457Z,4.90
2022-10-03T10:57:40.640Z,5.00
2022-10-03T11:00:39.406Z,4.40
2022-10-03T11:03:29.080Z,4.10
2022-10-03T11:06:17.396Z,5.20
2022-10-03T11:09:00.925Z,3.90
2022-10-03T11:11:29.289Z,4.00
2022-10-03T11:14:06.422Z,4.30
2022-10-03T11:17:11.499Z,3.60
2022-10-03T11:20:17.123Z,3.70
2022-10-03T11:22:48.215Z,3.90
2022-10-03T11:25:41.116Z,4.10
2022-10-03T11:28:42.312Z,3.70
2022-10-03T11:31:25.873Z,4.40
2022-10-03T11:34:18.468Z,4.40
2022-10-03T11:37:05.372Z,4.00
2022-10-03T11:40:03.825Z,4.00
2022-10-03T11:43:05.681Z,4.20
2022-10-03T11:45:48.766Z,4.10
2022-10-03T11:48:38.737Z,4.30
2022-10-03T11:51:15.826Z,3.50
2022-10-03T11:53:52.015Z,3.40
2022-10-03T11:57:08.176Z,3.60
2022-10-03T12:00:00.522Z,3.80
2022-10-03T12:02:38.845Z,3.90
2022-10-03T12:05:21.866Z,3.50
2022-10-03T12:08:36.445Z,5.30
2022-10-03T12:11:14.903Z,4.50
2022-10-03T12:14:18.094Z,3.90
2022-10-03T12:17:10.521Z,3.90
2022-10-03T12:19:53.967Z,4.10
2022-10-03T12:22:42.114Z,4.10
2022-10-03T12:25:32.202Z,3.90
2022-10-03T12:28:18.608Z,3.60
2022-10-03T12:31:05.818Z,3.40
2022-10-03T12:34:02.448Z,5.00
2022-10-03T12:37:01.970Z,4.30
2022-10-03T12:40:06.136Z,3.90
2022-10-03T12:43:00.371Z,4.20
2022-10-03T12:45:43.476Z,3.90
2022-10-03T12:48:23.492Z,4.40
2022-10-03T12:51:18.422Z,3.50
2022-10-03T12:54:13.347Z,3.90
2022-10-03T12:56:53.047Z,4.00
2022-10-03T12:59:34.734Z,3.60
2022-10-03T13:02:32.770Z,4.40
2022-10-03T13:05:24.566Z,3.80
2022-10-03T13:08:03.534Z,3.70
2022-10-03T13:11:15.010Z,4.00
2022-10-03T13:14:10.693Z,4.10
2022-10-03T13:16:41.351Z,4.20
2022-10-03T13:19:18.624Z,4.10
2022-10-03T13:22:06.368Z,4.70
2022-10-03T13:24:45.582Z,4.10
2022-10-03T13:27:36.099Z,4.60
2022-10-03T13:30:06.246Z,4.20
2022-10-03T13:32:50.224Z,4.50
2022-10-03T13:35:45.494Z,5.40
2022-10-03T13:38:58.203Z,4.30
2022-10-03T13:41:42.842Z,3.80
2022-10-03T13:44:18.328Z,3.80
2022-10-03T13:47:14.360Z,4.20
2022-10-03T13:50:14.008Z,4.40
2022-10-03T13:53:06.126Z,3.90
2022-10-03T13:55:56.358Z,4.40
2022-10-03T13:58:41.670Z,4.80
2022-10-03T14:01:46.775Z,5.20
2022-10-03T14:04:44.764Z,4.70
2022-10-03T14:07:38.032Z,4.80
2022-10-03T14:10:49.054Z,5.10
2022-10-03T14:13:25.898Z,5.20
2022-10-03T14:16:03.453Z,5.10
2022-10-03T14:18:53.258Z,5.60
2022-10-03T14:21:35.931Z,4.90
2022-10-03T14:24:13.498Z,5.40
2022-10-03T14:26:49.482Z,5.40
2022-10-03T14:29:54.621Z,5.00
2022-10-03T14:32:46.646Z,5.30
2022-10-03T14:35:38.139Z,5.10
2022-10-03T14:38:05.997Z,5.30
2022-10-03T14:40:40.642Z,4.90
2022-10-03T14:43:33.322Z,5.10
2022-10-03T14:46:03.190Z,4.60
2022-10-03T14:48:38.382Z,4.70
2022-10-03T14:51:19.217Z,4.60
2022-10-03T14:54:27.631Z,4.60
2022-10-03T14:56:58.198Z,3.80
2022-10-03T14:59:33.558Z,4.30
2022-10-03T15:02:25.418Z,4.90
2022-10-03T15:05:01.964Z,4.90
2022-10-03T15:07:43.416Z,6.40
2022-10-03T15:10:17.585Z,6.10
2022-10-03T15:12:50.654Z,7.60
2022-10-03T15:15:24.197Z,7.50
2022-10-03T15:17:55.691Z,7.70
2022-10-03T15:20:31.584Z,9.30
2022-10-03T15:23:01.692Z,9.20
2022-10-03T15:25:41.577Z,8.40
2022-10-03T15:28:16.117Z,7.00
2022-10-03T15:30:46.718Z,6.30
2022-10-03T15:33:51.131Z,6.50
2022-10-03T15:36:25.679Z,6.50
2022-10-03T15:38:57.813Z,6.10
2022-10-03T15:41:42.310Z,6.30
2022-10-03T15:46:58.542Z,7.30
2022-10-03T15:49:30.908Z,8.10
2022-10-03T15:52:32.363Z,7.00
2022-10-03T15:55:12.836Z,6.40
2022-10-03T15:57:47.238Z,5.50
2022-10-03T16:00:26.442Z,5.30
2022-10-03T16:03:04.132Z,5.50
2022-10-03T16:05:32.398Z,6.30
2022-10-03T16:08:07.885Z,5.40
2022-10-03T16:10:52.089Z,6.50
2022-10-03T16:13:45.304Z,6.80
2022-10-03T16:16:46.029Z,6.90
2022-10-03T16:19:31.547Z,7.00
2022-10-03T16:22:19.570Z,6.60
2022-10-03T16:24:58.581Z,6.90
2022-10-03T16:27:30.083Z,7.20
2022-10-03T16:30:12.166Z,6.90
2022-10-03T16:33:01.802Z,8.00
2022-10-03T16:35:43.335Z,6.40
2022-10-03T16:38:23.158Z,8.20
2022-10-03T16:41:02.104Z,6.70
2022-10-03T16:43:33.145Z,8.40
2022-10-03T16:46:09.277Z,8.60
2022-10-03T16:49:01.061Z,7.10
2022-10-03T16:51:40.407Z,9.50
2022-10-03T16:54:14.892Z,7.50
2022-10-03T16:56:55.595Z,7.10
2022-10-03T16:59:25.890Z,7.80
2022-10-03T17:02:04.657Z,7.80
2022-10-03T17:04:37.199Z,8.90
2022-10-03T17:07:23.816Z,8.50
2022-10-03T17:09:57.715Z,9.40
2022-10-03T17:12:33.692Z,10.00
2022-10-03T17:15:08.352Z,9.30
2022-10-03T17:18:00.094Z,7.70
2022-10-03T17:21:07.264Z,7.60
2022-10-03T17:23:44.306Z,9.50
2022-10-03T17:26:18.538Z,7.10
2022-10-03T17:29:10.946Z,6.70
2022-10-03T17:32:00.650Z,6.70
2022-10-03T17:34:39.646Z,6.80
2022-10-03T17:37:29.251Z,7.70
2022-10-03T17:40:21.465Z,8.90
2022-10-03T17:43:14.425Z,12.30
2022-10-03T17:45:51.645Z,10.90
2022-10-03T17:48:38.726Z,10.00
2022-10-03T17:51:25.125Z,9.50
2022-10-03T17:53:57.939Z,10.20
2022-10-03T17:56:31.784Z,11.30
2022-10-03T17:59:08.149Z,9.90
2022-10-03T18:01:43.124Z,9.60
2022-10-03T18:04:18.414Z,9.00
2022-10-03T18:06:49.659Z,10.50
2022-10-03T18:09:17.617Z,10.60
2022-10-03T18:11:48.761Z,9.90
2022-10-03T18:14:38.752Z,9.00
2022-10-03T18:17:23.291Z,8.10
2022-10-03T18:20:06.996Z,10.30
2022-10-03T18:22:40.943Z,8.70
2022-10-03T18:25:33.214Z,10.50
2022-10-03T18:28:40.301Z,9.80
2022-10-03T18:31:20.632Z,6.70
2022-10-03T18:34:17.329Z,7.10
2022-10-03T18:36:55.045Z,7.80
2022-10-03T18:39:31.266Z,6.90
2022-10-03T18:42:01.730Z,7.60
2022-10-03T18:44:32.571Z,6.80
2022-10-03T18:47:13.203Z,6.80
2022-10-03T18:49:49.383Z,7.50
2022-10-03T18:52:38.198Z,7.70
2022-10-03T18:55:29.655Z,8.50
2022-10-03T18:58:05.989Z,9.40
2022-10-03T19:00:46.975Z,8.60
2022-10-03T19:03:24.031Z,10.00
2022-10-03T19:06:03.639Z,9.10
2022-10-03T19:08:56.307Z,10.00
2022-10-03T19:11:53.436Z,8.70
2022-10-03T19:14:47.461Z,7.40
2022-10-03T19:17:50.275Z,8.10
2022-10-03T19:20:33.820Z,8.20
2022-10-03T19:23:11.495Z,9.50
2022-10-03T19:25:41.946Z,7.70
2022-10-03T19:28:31.234Z,8.30
2022-10-03T19:31:06.867Z,7.70
2022-10-03T19:33:43.553Z,7.80
2022-10-03T19:36:19.711Z,7.80
2022-10-03T19:38:49.801Z,7.50
2022-10-03T19:41:36.896Z,7.60
2022-10-03T19:44:09.097Z,6.70
2022-10-03T19:46:57.803Z,6.60
2022-10-03T19:49:39.155Z,6.60
2022-10-03T19:52:17.198Z,6.10
2022-10-03T19:55:10.681Z,5.90
2022-10-03T19:57:52.774Z,5.70
2022-10-03T20:00:25.943Z,6.20
2022-10-03T20:03:12.559Z,6.30
2022-10-03T20:05:46.685Z,5.50
2022-10-03T20:08:23.827Z,6.50
2022-10-03T20:11:19.441Z,6.50
2022-10-03T20:13:49.361Z,6.90
2022-10-03T20:16:22.066Z,6.30
2022-10-03T20:18:54.166Z,6.20
2022-10-03T20:21:27.487Z,6.20
2022-10-03T20:24:08.613Z,6.30
2022-10-03T20:26:44.971Z,5.90
2022-10-03T20:29:26.286Z,6.10
2022-10-03T20:32:03.016Z,6.50
2022-10-03T20:34:32.461Z,6.50
2022-10-03T20:37:17.570Z,6.80
2022-10-03T20:39:47.716Z,6.00
2022-10-03T20:42:28.976Z,6.60
2022-10-03T20:45:02.881Z,8.20
2022-10-03T20:47:46.571Z,8.20
2022-10-03T20:50:23.617Z,6.80
2022-10-03T20:53:00.806Z,6.10
2022-10-03T20:55:34.367Z,7.70
2022-10-03T20:58:13.502Z,7.00
2022-10-03T21:00:54.472Z,7.00
2022-10-03T21:03:47.691Z,6.80
2022-10-03T21:06:27.564Z,7.20
2022-10-03T21:08:57.625Z,7.00
2022-10-03T21:11:29.483Z,9.20
2022-10-03T21:14:22.628Z,9.10
2022-10-03T21:16:52.448Z,7.90
2022-10-03T21:19:38.129Z,8.70
2022-10-03T21:22:12.484Z,8.50
2022-10-03T21:24:49.350Z,8.80
2022-10-03T21:27:20.047Z,10.40
2022-10-03T21:30:21.376Z,9.40
2022-10-03T21:33:02.771Z,9.70
2022-10-03T21:35:35.524Z,9.70
2022-10-03T21:38:22.353Z,10.60
2022-10-03T21:40:56.249Z,10.30
2022-10-03T21:43:39.089Z,10.30
2022-10-03T21:46:21.336Z,10.80
2022-10-03T21:49:43.454Z,10.90
2022-10-03T21:52:26.846Z,10.50
2022-10-03T21:55:03.433Z,10.20
2022-10-03T21:57:53.284Z,9.90
2022-10-03T22:00:27.735Z,10.20
2022-10-03T22:03:09.277Z,10.20
2022-10-03T22:05:49.061Z,10.70
2022-10-03T22:08:30.657Z,11.70
2022-10-03T22:11:01.230Z,11.50
2022-10-03T22:13:34.759Z,11.70
2022-10-03T22:16:21.751Z,11.50
2022-10-03T22:19:08.434Z,10.80
2022-10-03T22:22:17.828Z,9.90
2022-10-03T22:25:09.787Z,9.10
2022-10-03T22:28:13.380Z,8.60
2022-10-03T22:30:51.447Z,8.70
2022-10-03T22:33:34.335Z,8.00
2022-10-03T22:36:03.595Z,7.70
2022-10-03T22:38:35.746Z,8.80
2022-10-03T22:41:09.573Z,7.30
2022-10-03T22:43:38.928Z,7.60
2022-10-03T22:46:09.416Z,7.90
2022-10-03T22:48:46.421Z,7.70
2022-10-03T22:51:16.426Z,8.40
2022-10-03T22:53:50.266Z,8.10
2022-10-03T22:56:44.169Z,8.30
2022-10-03T22:59:23.756Z,8.90
2022-10-03T23:01:54.493Z,9.20
2022-10-03T23:04:30.385Z,9.80
2022-10-03T23:07:35.888Z,9.20
2022-10-03T23:12:45.072Z,8.50
2022-10-03T23:15:19.822Z,7.30
2022-10-03T23:18:06.488Z,7.60
2022-10-03T23:20:55.890Z,8.80
2022-10-03T23:23:33.538Z,8.00
2022-10-03T23:26:29.482Z,8.20
2022-10-03T23:29:11.228Z,9.00
2022-10-03T23:31:58.522Z,11.80
2022-10-03T23:34:32.779Z,12.70
2022-10-03T23:37:26.102Z,12.40
2022-10-03T23:39:54.703Z,12.50
2022-10-03T23:42:47.522Z,11.40
2022-10-03T23:45:24.726Z,12.10
2022-10-03T23:48:14.559Z,13.10
2022-10-03T23:50:55.256Z,13.30
2022-10-03T23:53:43.832Z,12.40
2022-10-03T23:56:21.292Z,13.90
2022-10-03T23:58:57.754Z,12.50
